sensor_id;sensor_type;location;lat;lon;timestamp;temperature;humidity
1063;DHT22;520;50.932;6.962;2023-05-03T00:00:35;11.30;72.50
1063;DHT22;520;50.932;6.962;2023-05-03T00:03:06;11.20;72.30
1063;DHT22;520;50.932;6.962;2023-05-03T00:05:34;11.10;72.50
1063;DHT22;520;50.932;6.962;2023-05-03T00:08:01;10.90;73.20
1063;DHT22;520;50.932;6.962;2023-05-03T00:10:34;10.90;73.80
1063;DHT22;520;50.932;6.962;2023-05-03T00:13:04;10.80;74.30
1063;DHT22;520;50.932;6.962;2023-05-03T00:15:36;10.90;74.50
1063;DHT22;520;50.932;6.962;2023-05-03T00:18:09;10.90;73.90
1063;DHT22;520;50.932;6.962;2023-05-03T00:20:39;10.90;74.20
1063;DHT22;520;50.932;6.962;2023-05-03T00:23:14;10.80;74.40
1063;DHT22;520;50.932;6.962;2023-05-03T00:25:50;10.80;75.10
1063;DHT22;520;50.932;6.962;2023-05-03T00:28:20;11.10;74.20
1063;DHT22;520;50.932;6.962;2023-05-03T00:31:09;11.00;73.30
1063;DHT22;520;50.932;6.962;2023-05-03T00:33:53;10.80;73.80
1063;DHT22;520;50.932;6.962;2023-05-03T00:36:23;10.80;74.20
1063;DHT22;520;50.932;6.962;2023-05-03T00:38:50;10.90;73.80
1063;DHT22;520;50.932;6.962;2023-05-03T00:41:28;10.70;73.70
1063;DHT22;520;50.932;6.962;2023-05-03T00:44:00;10.90;74.10
1063;DHT22;520;50.932;6.962;2023-05-03T00:46:33;10.70;73.90
1063;DHT22;520;50.932;6.962;2023-05-03T00:49:13;10.70;74.10
1063;DHT22;520;50.932;6.962;2023-05-03T00:51:46;10.70;74.40
1063;DHT22;520;50.932;6.962;2023-05-03T00:54:19;10.70;75.00
1063;DHT22;520;50.932;6.962;2023-05-03T00:57:14;10.60;75.20
1063;DHT22;520;50.932;6.962;2023-05-03T01:03:29;10.70;74.90
1063;DHT22;520;50.932;6.962;2023-05-03T01:06:22;10.60;75.00
1063;DHT22;520;50.932;6.962;2023-05-03T01:09:30;10.60;75.20
1063;DHT22;520;50.932;6.962;2023-05-03T01:15:20;10.70;75.00
1063;DHT22;520;50.932;6.962;2023-05-03T01:18:04;10.80;75.10
1063;DHT22;520;50.932;6.962;2023-05-03T01:20:36;10.70;74.40
1063;DHT22;520;50.932;6.962;2023-05-03T01:23:41;10.60;74.80
1063;DHT22;520;50.932;6.962;2023-05-03T01:26:19;10.60;75.20
1063;DHT22;520;50.932;6.962;2023-05-03T01:28:55;10.70;75.80
1063;DHT22;520;50.932;6.962;2023-05-03T01:31:31;10.70;76.00
1063;DHT22;520;50.932;6.962;2023-05-03T01:34:27;10.70;76.30
1063;DHT22;520;50.932;6.962;2023-05-03T01:37:03;10.60;76.20
1063;DHT22;520;50.932;6.962;2023-05-03T01:39:45;10.60;76.50
1063;DHT22;520;50.932;6.962;2023-05-03T01:42:17;10.60;76.30
1063;DHT22;520;50.932;6.962;2023-05-03T01:44:55;10.50;76.10
1063;DHT22;520;50.932;6.962;2023-05-03T01:47:27;10.40;76.30
1063;DHT22;520;50.932;6.962;2023-05-03T01:49:58;10.40;76.40
1063;DHT22;520;50.932;6.962;2023-05-03T01:52:26;10.30;76.20
1063;DHT22;520;50.932;6.962;2023-05-03T01:55:08;10.40;76.40
1063;DHT22;520;50.932;6.962;2023-05-03T01:57:42;10.60;75.70
1063;DHT22;520;50.932;6.962;2023-05-03T02:00:22;10.50;74.80
1063;DHT22;520;50.932;6.962;2023-05-03T02:02:54;10.40;75.70
1063;DHT22;520;50.932;6.962;2023-05-03T02:05:34;10.40;75.40
1063;DHT22;520;50.932;6.962;2023-05-03T02:08:06;10.20;75.80
1063;DHT22;520;50.932;6.962;2023-05-03T02:10:36;10.20;75.80
1063;DHT22;520;50.932;6.962;2023-05-03T02:13:11;10.20;76.60
1063;DHT22;520;50.932;6.962;2023-05-03T02:15:52;10.10;76.60
1063;DHT22;520;50.932;6.962;2023-05-03T02:18:25;10.20;77.00
1063;DHT22;520;50.932;6.962;2023-05-03T02:20:59;10.00;77.00
1063;DHT22;520;50.932;6.962;2023-05-03T02:23:27;10.00;77.30
1063;DHT22;520;50.932;6.962;2023-05-03T02:26:00;10.00;77.40
1063;DHT22;520;50.932;6.962;2023-05-03T02:28:33;10.00;77.80
1063;DHT22;520;50.932;6.962;2023-05-03T02:31:09;10.00;77.80
1063;DHT22;520;50.932;6.962;2023-05-03T02:33:38;10.00;78.00
1063;DHT22;520;50.932;6.962;2023-05-03T02:36:08;10.20;77.80
1063;DHT22;520;50.932;6.962;2023-05-03T02:38:43;10.20;77.70
1063;DHT22;520;50.932;6.962;2023-05-03T02:41:15;10.10;77.60
1063;DHT22;520;50.932;6.962;2023-05-03T02:43:44;10.10;77.80
1063;DHT22;520;50.932;6.962;2023-05-03T02:46:14;10.20;77.40
1063;DHT22;520;50.932;6.962;2023-05-03T02:48:53;10.10;77.60
1063;DHT22;520;50.932;6.962;2023-05-03T02:51:22;10.00;78.00
1063;DHT22;520;50.932;6.962;2023-05-03T02:53:55;10.10;78.40
1063;DHT22;520;50.932;6.962;2023-05-03T02:56:33;10.00;78.50
1063;DHT22;520;50.932;6.962;2023-05-03T02:59:05;10.00;78.90
1063;DHT22;520;50.932;6.962;2023-05-03T03:01:42;10.00;79.00
1063;DHT22;520;50.932;6.962;2023-05-03T03:04:11;10.00;79.40
1063;DHT22;520;50.932;6.962;2023-05-03T03:06:40;10.00;80.30
1063;DHT22;520;50.932;6.962;2023-05-03T03:09:07;9.90;80.80
1063;DHT22;520;50.932;6.962;2023-05-03T03:11:45;10.00;79.70
1063;DHT22;520;50.932;6.962;2023-05-03T03:14:14;9.90;80.80
1063;DHT22;520;50.932;6.962;2023-05-03T03:16:49;9.90;81.00
1063;DHT22;520;50.932;6.962;2023-05-03T03:19:16;9.90;81.80
1063;DHT22;520;50.932;6.962;2023-05-03T03:21:43;9.90;82.10
1063;DHT22;520;50.932;6.962;2023-05-03T03:24:21;9.90;82.40
1063;DHT22;520;50.932;6.962;2023-05-03T03:26:48;9.90;82.60
1063;DHT22;520;50.932;6.962;2023-05-03T03:29:15;9.90;82.70
1063;DHT22;520;50.932;6.962;2023-05-03T03:31:59;9.90;82.90
1063;DHT22;520;50.932;6.962;2023-05-03T03:34:39;9.90;83.00
1063;DHT22;520;50.932;6.962;2023-05-03T03:37:06;9.90;83.30
1063;DHT22;520;50.932;6.962;2023-05-03T03:39:45;9.90;83.40
1063;DHT22;520;50.932;6.962;2023-05-03T03:42:14;9.80;83.70
1063;DHT22;520;50.932;6.962;2023-05-03T03:44:44;9.80;84.70
1063;DHT22;520;50.932;6.962;2023-05-03T03:47:20;9.80;84.30
1063;DHT22;520;50.932;6.962;2023-05-03T03:50:02;9.80;84.50
1063;DHT22;520;50.932;6.962;2023-05-03T03:52:44;9.80;84.70
1063;DHT22;520;50.932;6.962;2023-05-03T03:55:28;9.70;84.70
1063;DHT22;520;50.932;6.962;2023-05-03T03:58:30;9.70;84.80
1063;DHT22;520;50.932;6.962;2023-05-03T04:01:12;9.80;84.80
1063;DHT22;520;50.932;6.962;2023-05-03T04:03:44;10.00;82.70
1063;DHT22;520;50.932;6.962;2023-05-03T04:06:16;9.80;83.90
1063;DHT22;520;50.932;6.962;2023-05-03T04:08:43;9.60;83.90
1063;DHT22;520;50.932;6.962;2023-05-03T04:11:10;9.50;84.80
1063;DHT22;520;50.932;6.962;2023-05-03T04:13:40;9.60;85.60
1063;DHT22;520;50.932;6.962;2023-05-03T04:16:10;9.90;85.50
1063;DHT22;520;50.932;6.962;2023-05-03T04:18:37;9.80;85.80
1063;DHT22;520;50.932;6.962;2023-05-03T04:21:05;9.80;85.90
1063;DHT22;520;50.932;6.962;2023-05-03T04:23:37;9.70;86.20
1063;DHT22;520;50.932;6.962;2023-05-03T04:26:09;9.60;87.50
1063;DHT22;520;50.932;6.962;2023-05-03T04:28:49;9.50;88.00
1063;DHT22;520;50.932;6.962;2023-05-03T04:31:22;9.30;89.10
1063;DHT22;520;50.932;6.962;2023-05-03T04:33:51;9.20;90.10
1063;DHT22;520;50.932;6.962;2023-05-03T04:36:20;9.20;90.70
1063;DHT22;520;50.932;6.962;2023-05-03T04:38:53;9.10;90.60
1063;DHT22;520;50.932;6.962;2023-05-03T04:41:21;9.10;90.30
1063;DHT22;520;50.932;6.962;2023-05-03T04:43:58;9.20;90.50
1063;DHT22;520;50.932;6.962;2023-05-03T04:46:25;9.00;90.70
1063;DHT22;520;50.932;6.962;2023-05-03T04:48:58;8.90;91.30
1063;DHT22;520;50.932;6.962;2023-05-03T04:51:25;9.20;91.60
1063;DHT22;520;50.932;6.962;2023-05-03T04:53:54;9.10;91.70
1063;DHT22;520;50.932;6.962;2023-05-03T04:56:21;9.00;91.90
1063;DHT22;520;50.932;6.962;2023-05-03T04:58:52;9.10;92.40
1063;DHT22;520;50.932;6.962;2023-05-03T05:01:25;9.20;92.70
1063;DHT22;520;50.932;6.962;2023-05-03T05:03:53;9.30;92.70
1063;DHT22;520;50.932;6.962;2023-05-03T05:06:20;9.30;92.60
1063;DHT22;520;50.932;6.962;2023-05-03T05:08:47;9.50;92.70
1063;DHT22;520;50.932;6.962;2023-05-03T05:11:14;9.60;91.90
1063;DHT22;520;50.932;6.962;2023-05-03T05:13:41;9.70;91.30
1063;DHT22;520;50.932;6.962;2023-05-03T05:16:10;9.80;90.00
1063;DHT22;520;50.932;6.962;2023-05-03T05:18:38;9.70;89.90
1063;DHT22;520;50.932;6.962;2023-05-03T05:21:10;9.60;90.00
1063;DHT22;520;50.932;6.962;2023-05-03T05:23:40;9.80;90.00
1063;DHT22;520;50.932;6.962;2023-05-03T05:26:08;10.30;87.20
1063;DHT22;520;50.932;6.962;2023-05-03T05:28:40;10.20;86.10
1063;DHT22;520;50.932;6.962;2023-05-03T05:31:21;10.10;86.40
1063;DHT22;520;50.932;6.962;2023-05-03T05:33:52;9.90;88.50
1063;DHT22;520;50.932;6.962;2023-05-03T05:36:21;9.90;88.90
1063;DHT22;520;50.932;6.962;2023-05-03T05:38:58;9.90;88.60
1063;DHT22;520;50.932;6.962;2023-05-03T05:41:26;9.90;88.40
1063;DHT22;520;50.932;6.962;2023-05-03T05:43:57;9.70;89.00
1063;DHT22;520;50.932;6.962;2023-05-03T05:46:32;9.80;88.10
1063;DHT22;520;50.932;6.962;2023-05-03T05:49:01;9.70;86.40
1063;DHT22;520;50.932;6.962;2023-05-03T05:51:37;9.70;86.60
1063;DHT22;520;50.932;6.962;2023-05-03T05:54:06;9.90;85.70
1063;DHT22;520;50.932;6.962;2023-05-03T05:56:36;9.70;85.10
1063;DHT22;520;50.932;6.962;2023-05-03T05:59:03;9.90;86.20
1063;DHT22;520;50.932;6.962;2023-05-03T06:01:31;10.10;83.90
1063;DHT22;520;50.932;6.962;2023-05-03T06:04:00;10.00;83.80
1063;DHT22;520;50.932;6.962;2023-05-03T06:06:29;9.90;85.00
1063;DHT22;520;50.932;6.962;2023-05-03T06:08:57;10.00;84.20
1063;DHT22;520;50.932;6.962;2023-05-03T06:11:35;10.10;83.60
1063;DHT22;520;50.932;6.962;2023-05-03T06:14:04;10.10;83.20
1063;DHT22;520;50.932;6.962;2023-05-03T06:16:37;10.20;83.60
1063;DHT22;520;50.932;6.962;2023-05-03T06:19:04;10.30;83.40
1063;DHT22;520;50.932;6.962;2023-05-03T06:21:33;10.50;82.50
1063;DHT22;520;50.932;6.962;2023-05-03T06:24:02;12.10;83.10
1063;DHT22;520;50.932;6.962;2023-05-03T06:26:31;15.50;73.00
1063;DHT22;520;50.932;6.962;2023-05-03T06:29:06;17.20;61.20
1063;DHT22;520;50.932;6.962;2023-05-03T06:31:32;16.40;57.80
1063;DHT22;520;50.932;6.962;2023-05-03T06:34:00;15.00;58.90
1063;DHT22;520;50.932;6.962;2023-05-03T06:36:34;13.80;61.20
1063;DHT22;520;50.932;6.962;2023-05-03T06:39:03;13.00;64.60
1063;DHT22;520;50.932;6.962;2023-05-03T06:41:31;12.60;66.20
1063;DHT22;520;50.932;6.962;2023-05-03T06:44:00;12.10;68.00
1063;DHT22;520;50.932;6.962;2023-05-03T06:46:32;12.10;69.60
1063;DHT22;520;50.932;6.962;2023-05-03T06:49:01;12.10;70.30
1063;DHT22;520;50.932;6.962;2023-05-03T06:51:30;11.80;70.90
1063;DHT22;520;50.932;6.962;2023-05-03T06:54:03;11.70;72.50
1063;DHT22;520;50.932;6.962;2023-05-03T06:56:35;11.90;72.30
1063;DHT22;520;50.932;6.962;2023-05-03T06:59:03;11.80;71.80
1063;DHT22;520;50.932;6.962;2023-05-03T07:01:33;11.80;72.20
1063;DHT22;520;50.932;6.962;2023-05-03T07:04:16;11.80;72.40
1063;DHT22;520;50.932;6.962;2023-05-03T07:06:53;12.00;71.90
1063;DHT22;520;50.932;6.962;2023-05-03T07:09:25;12.20;72.40
1063;DHT22;520;50.932;6.962;2023-05-03T07:12:08;12.20;70.30
1063;DHT22;520;50.932;6.962;2023-05-03T07:14:49;12.50;70.80
1063;DHT22;520;50.932;6.962;2023-05-03T07:17:20;13.20;68.10
1063;DHT22;520;50.932;6.962;2023-05-03T07:19:51;13.40;66.00
1063;DHT22;520;50.932;6.962;2023-05-03T07:22:22;13.90;64.40
1063;DHT22;520;50.932;6.962;2023-05-03T07:25:09;13.90;64.10
1063;DHT22;520;50.932;6.962;2023-05-03T07:27:43;15.00;61.90
1063;DHT22;520;50.932;6.962;2023-05-03T07:30:28;16.10;59.20
1063;DHT22;520;50.932;6.962;2023-05-03T07:36:13;19.80;51.40
1063;DHT22;520;50.932;6.962;2023-05-03T07:39:12;21.80;47.70
1063;DHT22;520;50.932;6.962;2023-05-03T07:42:07;22.50;44.90
1063;DHT22;520;50.932;6.962;2023-05-03T07:45:12;23.60;43.00
1063;DHT22;520;50.932;6.962;2023-05-03T07:48:11;24.50;40.20
1063;DHT22;520;50.932;6.962;2023-05-03T07:51:25;24.60;39.90
1063;DHT22;520;50.932;6.962;2023-05-03T07:54:01;25.50;38.60
1063;DHT22;520;50.932;6.962;2023-05-03T07:56:47;25.90;36.50
1063;DHT22;520;50.932;6.962;2023-05-03T07:59:38;25.70;36.30
1063;DHT22;520;50.932;6.962;2023-05-03T08:02:13;25.40;35.70
1063;DHT22;520;50.932;6.962;2023-05-03T08:04:46;25.50;35.40
1063;DHT22;520;50.932;6.962;2023-05-03T08:07:42;26.00;35.00
1063;DHT22;520;50.932;6.962;2023-05-03T08:10:24;26.40;34.30
1063;DHT22;520;50.932;6.962;2023-05-03T08:12:53;25.60;34.70
1063;DHT22;520;50.932;6.962;2023-05-03T08:15:20;25.50;35.50
1063;DHT22;520;50.932;6.962;2023-05-03T08:17:52;26.00;34.90
1063;DHT22;520;50.932;6.962;2023-05-03T08:20:22;26.10;34.20
1063;DHT22;520;50.932;6.962;2023-05-03T08:22:49;26.80;33.10
1063;DHT22;520;50.932;6.962;2023-05-03T08:25:26;26.70;32.60
1063;DHT22;520;50.932;6.962;2023-05-03T08:28:00;26.40;32.30
1063;DHT22;520;50.932;6.962;2023-05-03T08:30:53;26.00;32.50
1063;DHT22;520;50.932;6.962;2023-05-03T08:33:45;25.20;33.70
1063;DHT22;520;50.932;6.962;2023-05-03T08:36:36;25.10;34.00
1063;DHT22;520;50.932;6.962;2023-05-03T08:39:22;25.00;33.60
1063;DHT22;520;50.932;6.962;2023-05-03T08:42:17;25.00;33.80
1063;DHT22;520;50.932;6.962;2023-05-03T08:45:04;25.40;33.10
1063;DHT22;520;50.932;6.962;2023-05-03T08:48:07;26.20;32.80
1063;DHT22;520;50.932;6.962;2023-05-03T08:50:53;26.30;32.10
1063;DHT22;520;50.932;6.962;2023-05-03T08:53:52;26.40;31.60
1063;DHT22;520;50.932;6.962;2023-05-03T08:56:40;26.00;30.90
1063;DHT22;520;50.932;6.962;2023-05-03T08:59:20;25.50;31.70
1063;DHT22;520;50.932;6.962;2023-05-03T09:01:56;25.90;31.30
1063;DHT22;520;50.932;6.962;2023-05-03T09:04:49;25.20;31.50
1063;DHT22;520;50.932;6.962;2023-05-03T09:07:33;24.70;33.10
1063;DHT22;520;50.932;6.962;2023-05-03T09:10:23;24.90;32.80
1063;DHT22;520;50.932;6.962;2023-05-03T09:16:32;25.30;33.50
1063;DHT22;520;50.932;6.962;2023-05-03T09:19:22;26.90;31.30
1063;DHT22;520;50.932;6.962;2023-05-03T09:22:05;26.90;30.30
1063;DHT22;520;50.932;6.962;2023-05-03T09:25:06;26.70;30.70
1063;DHT22;520;50.932;6.962;2023-05-03T09:31:35;27.50;30.50
1063;DHT22;520;50.932;6.962;2023-05-03T09:34:27;27.50;29.70
1063;DHT22;520;50.932;6.962;2023-05-03T09:37:04;27.30;30.50
1063;DHT22;520;50.932;6.962;2023-05-03T09:43:30;26.70;29.80
1063;DHT22;520;50.932;6.962;2023-05-03T09:46:28;25.10;30.80
1063;DHT22;520;50.932;6.962;2023-05-03T09:49:16;24.40;31.80
1063;DHT22;520;50.932;6.962;2023-05-03T09:52:31;25.50;31.60
1063;DHT22;520;50.932;6.962;2023-05-03T09:55:39;25.90;30.90
1063;DHT22;520;50.932;6.962;2023-05-03T09:58:30;25.50;31.20
1063;DHT22;520;50.932;6.962;2023-05-03T10:01:24;25.60;31.50
1063;DHT22;520;50.932;6.962;2023-05-03T10:04:19;25.90;30.20
1063;DHT22;520;50.932;6.962;2023-05-03T10:07:08;25.80;30.00
1063;DHT22;520;50.932;6.962;2023-05-03T10:10:15;26.20;30.00
1063;DHT22;520;50.932;6.962;2023-05-03T10:12:52;24.80;30.90
1063;DHT22;520;50.932;6.962;2023-05-03T10:15:36;25.50;31.30
1063;DHT22;520;50.932;6.962;2023-05-03T10:18:18;25.70;30.60
1063;DHT22;520;50.932;6.962;2023-05-03T10:28:00;24.90;30.30
1063;DHT22;520;50.932;6.962;2023-05-03T10:30:43;25.10;30.40
1063;DHT22;520;50.932;6.962;2023-05-03T10:33:33;24.60;31.30
1063;DHT22;520;50.932;6.962;2023-05-03T10:36:24;25.10;31.00
1063;DHT22;520;50.932;6.962;2023-05-03T10:39:19;25.30;30.60
1063;DHT22;520;50.932;6.962;2023-05-03T10:42:15;25.10;30.70
1063;DHT22;520;50.932;6.962;2023-05-03T10:44:54;24.50;31.40
1063;DHT22;520;50.932;6.962;2023-05-03T10:52:09;24.60;31.70
1063;DHT22;520;50.932;6.962;2023-05-03T10:59:21;25.40;31.70
1063;DHT22;520;50.932;6.962;2023-05-03T11:02:15;25.00;31.10
1063;DHT22;520;50.932;6.962;2023-05-03T11:04:59;24.40;32.00
1063;DHT22;520;50.932;6.962;2023-05-03T11:08:15;24.60;31.90
1063;DHT22;520;50.932;6.962;2023-05-03T11:10:56;24.30;31.20
1063;DHT22;520;50.932;6.962;2023-05-03T11:13:40;24.00;31.50
1063;DHT22;520;50.932;6.962;2023-05-03T11:16:54;24.00;31.50
1063;DHT22;520;50.932;6.962;2023-05-03T11:19:32;24.30;31.70
1063;DHT22;520;50.932;6.962;2023-05-03T11:22:07;23.80;32.60
1063;DHT22;520;50.932;6.962;2023-05-03T11:24:50;23.30;33.10
1063;DHT22;520;50.932;6.962;2023-05-03T11:27:43;23.40;33.40
1063;DHT22;520;50.932;6.962;2023-05-03T11:30:37;24.00;32.60
1063;DHT22;520;50.932;6.962;2023-05-03T11:33:16;24.50;31.70
1063;DHT22;520;50.932;6.962;2023-05-03T11:35:56;23.60;31.70
1063;DHT22;520;50.932;6.962;2023-05-03T11:38:43;23.00;32.40
1063;DHT22;520;50.932;6.962;2023-05-03T11:41:17;23.90;33.00
1063;DHT22;520;50.932;6.962;2023-05-03T11:43:52;23.70;32.90
1063;DHT22;520;50.932;6.962;2023-05-03T11:46:45;24.00;32.60
1063;DHT22;520;50.932;6.962;2023-05-03T11:49:23;24.50;32.40
1063;DHT22;520;50.932;6.962;2023-05-03T11:52:24;24.00;32.70
1063;DHT22;520;50.932;6.962;2023-05-03T11:54:53;24.00;32.20
1063;DHT22;520;50.932;6.962;2023-05-03T11:57:25;24.40;32.10
1063;DHT22;520;50.932;6.962;2023-05-03T12:00:12;24.80;31.90
1063;DHT22;520;50.932;6.962;2023-05-03T12:03:15;24.40;31.70
1063;DHT22;520;50.932;6.962;2023-05-03T12:05:58;23.60;32.80
1063;DHT22;520;50.932;6.962;2023-05-03T12:12:33;24.50;32.40
1063;DHT22;520;50.932;6.962;2023-05-03T12:19:07;25.40;30.30
1063;DHT22;520;50.932;6.962;2023-05-03T12:21:52;24.60;30.90
1063;DHT22;520;50.932;6.962;2023-05-03T12:24:53;24.30;31.10
1063;DHT22;520;50.932;6.962;2023-05-03T12:27:33;24.50;32.10
1063;DHT22;520;50.932;6.962;2023-05-03T12:30:07;24.80;31.50
1063;DHT22;520;50.932;6.962;2023-05-03T12:32:58;25.30;31.80
1063;DHT22;520;50.932;6.962;2023-05-03T12:39:28;24.90;31.50
1063;DHT22;520;50.932;6.962;2023-05-03T12:43:16;24.40;31.70
1063;DHT22;520;50.932;6.962;2023-05-03T12:46:27;24.50;32.10
1063;DHT22;520;50.932;6.962;2023-05-03T12:52:40;25.10;31.50
1063;DHT22;520;50.932;6.962;2023-05-03T12:55:37;25.70;30.90
1063;DHT22;520;50.932;6.962;2023-05-03T12:58:36;26.10;30.00
1063;DHT22;520;50.932;6.962;2023-05-03T13:01:52;25.60;30.60
1063;DHT22;520;50.932;6.962;2023-05-03T13:04:27;25.10;30.90
1063;DHT22;520;50.932;6.962;2023-05-03T13:07:02;24.70;31.00
1063;DHT22;520;50.932;6.962;2023-05-03T13:09:46;25.20;30.80
1063;DHT22;520;50.932;6.962;2023-05-03T13:12:26;25.10;31.20
1063;DHT22;520;50.932;6.962;2023-05-03T13:14:58;25.20;31.10
1063;DHT22;520;50.932;6.962;2023-05-03T13:17:50;24.50;31.90
1063;DHT22;520;50.932;6.962;2023-05-03T13:20:24;24.40;31.60
1063;DHT22;520;50.932;6.962;2023-05-03T13:23:08;24.10;31.90
1063;DHT22;520;50.932;6.962;2023-05-03T13:25:55;24.40;31.80
1063;DHT22;520;50.932;6.962;2023-05-03T13:28:48;24.60;31.00
1063;DHT22;520;50.932;6.962;2023-05-03T13:31:21;24.40;30.80
1063;DHT22;520;50.932;6.962;2023-05-03T13:34:09;24.30;30.90
1063;DHT22;520;50.932;6.962;2023-05-03T13:36:47;23.90;31.60
1063;DHT22;520;50.932;6.962;2023-05-03T13:39:16;23.80;32.10
1063;DHT22;520;50.932;6.962;2023-05-03T13:41:53;24.30;31.50
1063;DHT22;520;50.932;6.962;2023-05-03T13:44:34;24.00;31.70
1063;DHT22;520;50.932;6.962;2023-05-03T13:47:07;24.20;31.90
1063;DHT22;520;50.932;6.962;2023-05-03T13:49:46;24.20;32.10
1063;DHT22;520;50.932;6.962;2023-05-03T13:52:33;23.90;32.40
1063;DHT22;520;50.932;6.962;2023-05-03T13:55:09;24.20;32.10
1063;DHT22;520;50.932;6.962;2023-05-03T14:01:01;24.00;32.20
1063;DHT22;520;50.932;6.962;2023-05-03T14:03:42;24.20;32.10
1063;DHT22;520;50.932;6.962;2023-05-03T14:06:19;23.80;32.00
1063;DHT22;520;50.932;6.962;2023-05-03T14:09:02;23.50;32.50
1063;DHT22;520;50.932;6.962;2023-05-03T14:11:37;23.40;32.60
1063;DHT22;520;50.932;6.962;2023-05-03T14:14:20;23.70;32.60
1063;DHT22;520;50.932;6.962;2023-05-03T14:16:58;23.60;32.40
1063;DHT22;520;50.932;6.962;2023-05-03T14:19:35;23.40;32.60
1063;DHT22;520;50.932;6.962;2023-05-03T14:22:24;23.70;32.70
1063;DHT22;520;50.932;6.962;2023-05-03T14:25:10;24.10;32.10
1063;DHT22;520;50.932;6.962;2023-05-03T14:27:49;23.90;32.60
1063;DHT22;520;50.932;6.962;2023-05-03T14:30:39;24.00;33.00
1063;DHT22;520;50.932;6.962;2023-05-03T14:33:18;23.70;32.90
1063;DHT22;520;50.932;6.962;2023-05-03T14:35:48;24.00;33.00
1063;DHT22;520;50.932;6.962;2023-05-03T14:38:19;23.90;32.80
1063;DHT22;520;50.932;6.962;2023-05-03T14:40:52;23.90;32.20
1063;DHT22;520;50.932;6.962;2023-05-03T14:43:23;23.60;32.90
1063;DHT22;520;50.932;6.962;2023-05-03T14:45:50;23.30;33.00
1063;DHT22;520;50.932;6.962;2023-05-03T14:48:21;23.00;33.60
1063;DHT22;520;50.932;6.962;2023-05-03T15:01:57;23.00;34.20
1063;DHT22;520;50.932;6.962;2023-05-03T15:04:30;23.40;34.40
1063;DHT22;520;50.932;6.962;2023-05-03T15:07:06;23.00;33.40
1063;DHT22;520;50.932;6.962;2023-05-03T15:09:36;22.70;33.70
1063;DHT22;520;50.932;6.962;2023-05-03T15:12:07;22.50;34.10
1063;DHT22;520;50.932;6.962;2023-05-03T15:14:37;22.40;33.80
1063;DHT22;520;50.932;6.962;2023-05-03T15:17:21;22.40;33.80
1063;DHT22;520;50.932;6.962;2023-05-03T15:20:01;22.20;33.80
1063;DHT22;520;50.932;6.962;2023-05-03T15:22:33;22.00;34.50
1063;DHT22;520;50.932;6.962;2023-05-03T15:25:10;22.30;34.80
1063;DHT22;520;50.932;6.962;2023-05-03T15:27:47;22.60;35.50
1063;DHT22;520;50.932;6.962;2023-05-03T15:30:18;22.60;34.40
1063;DHT22;520;50.932;6.962;2023-05-03T15:33:04;22.60;34.50
1063;DHT22;520;50.932;6.962;2023-05-03T15:35:31;22.70;34.10
1063;DHT22;520;50.932;6.962;2023-05-03T15:38:00;22.70;34.20
1063;DHT22;520;50.932;6.962;2023-05-03T15:40:37;22.70;34.10
1063;DHT22;520;50.932;6.962;2023-05-03T15:43:12;22.60;34.10
1063;DHT22;520;50.932;6.962;2023-05-03T15:45:43;22.40;34.80
1063;DHT22;520;50.932;6.962;2023-05-03T15:48:20;22.30;35.00
1063;DHT22;520;50.932;6.962;2023-05-03T15:50:57;22.30;35.10
1063;DHT22;520;50.932;6.962;2023-05-03T15:53:27;22.40;35.00
1063;DHT22;520;50.932;6.962;2023-05-03T15:55:56;22.40;35.40
1063;DHT22;520;50.932;6.962;2023-05-03T15:58:28;22.50;35.10
1063;DHT22;520;50.932;6.962;2023-05-03T16:01:00;22.80;35.10
1063;DHT22;520;50.932;6.962;2023-05-03T16:03:35;22.80;34.90
1063;DHT22;520;50.932;6.962;2023-05-03T16:06:05;22.60;35.30
1063;DHT22;520;50.932;6.962;2023-05-03T16:08:37;22.60;35.10
1063;DHT22;520;50.932;6.962;2023-05-03T16:11:11;22.90;35.30
1063;DHT22;520;50.932;6.962;2023-05-03T16:17:04;22.60;35.20
1063;DHT22;520;50.932;6.962;2023-05-03T16:19:36;22.50;35.40
1063;DHT22;520;50.932;6.962;2023-05-03T16:28:37;22.30;35.10
1063;DHT22;520;50.932;6.962;2023-05-03T16:31:24;22.40;35.00
1063;DHT22;520;50.932;6.962;2023-05-03T16:34:17;22.50;35.10
1063;DHT22;520;50.932;6.962;2023-05-03T16:40:32;22.50;35.10
1063;DHT22;520;50.932;6.962;2023-05-03T16:43:28;22.60;34.80
1063;DHT22;520;50.932;6.962;2023-05-03T16:49:23;21.90;35.00
1063;DHT22;520;50.932;6.962;2023-05-03T16:52:28;21.70;35.30
1063;DHT22;520;50.932;6.962;2023-05-03T16:55:02;21.70;35.70
1063;DHT22;520;50.932;6.962;2023-05-03T17:01:49;22.20;35.60
1063;DHT22;520;50.932;6.962;2023-05-03T17:04:22;22.20;35.20
1063;DHT22;520;50.932;6.962;2023-05-03T17:06:48;22.00;34.50
1063;DHT22;520;50.932;6.962;2023-05-03T17:11:52;21.60;35.00
1063;DHT22;520;50.932;6.962;2023-05-03T17:14:56;21.90;34.80
1063;DHT22;520;50.932;6.962;2023-05-03T17:17:25;21.70;34.50
1063;DHT22;520;50.932;6.962;2023-05-03T17:20:14;21.50;35.00
1063;DHT22;520;50.932;6.962;2023-05-03T17:22:52;21.50;35.00
1063;DHT22;520;50.932;6.962;2023-05-03T17:25:28;21.70;34.90
1063;DHT22;520;50.932;6.962;2023-05-03T17:28:20;21.50;35.00
1063;DHT22;520;50.932;6.962;2023-05-03T17:31:18;21.40;35.60
1063;DHT22;520;50.932;6.962;2023-05-03T17:34:00;21.40;35.60
1063;DHT22;520;50.932;6.962;2023-05-03T17:36:56;21.70;35.50
1063;DHT22;520;50.932;6.962;2023-05-03T17:39:32;21.60;35.20
1063;DHT22;520;50.932;6.962;2023-05-03T17:42:08;21.60;35.80
1063;DHT22;520;50.932;6.962;2023-05-03T17:44:40;21.70;39.30
1063;DHT22;520;50.932;6.962;2023-05-03T17:47:13;21.70;41.20
1063;DHT22;520;50.932;6.962;2023-05-03T17:49:45;21.60;42.70
1063;DHT22;520;50.932;6.962;2023-05-03T17:52:19;21.30;42.20
1063;DHT22;520;50.932;6.962;2023-05-03T17:54:48;21.10;42.90
1063;DHT22;520;50.932;6.962;2023-05-03T17:57:19;21.00;43.60
1063;DHT22;520;50.932;6.962;2023-05-03T17:59:50;20.90;43.80
1063;DHT22;520;50.932;6.962;2023-05-03T18:02:23;21.00;44.10
1063;DHT22;520;50.932;6.962;2023-05-03T18:04:51;21.00;44.50
1063;DHT22;520;50.932;6.962;2023-05-03T18:07:23;20.80;44.60
1063;DHT22;520;50.932;6.962;2023-05-03T18:09:53;20.70;45.10
1063;DHT22;520;50.932;6.962;2023-05-03T18:12:25;20.60;46.00
1063;DHT22;520;50.932;6.962;2023-05-03T18:14:55;20.50;46.40
1063;DHT22;520;50.932;6.962;2023-05-03T18:17:29;20.50;46.80
1063;DHT22;520;50.932;6.962;2023-05-03T18:20:02;20.50;46.50
1063;DHT22;520;50.932;6.962;2023-05-03T18:22:34;20.40;46.60
1063;DHT22;520;50.932;6.962;2023-05-03T18:25:05;20.20;46.60
1063;DHT22;520;50.932;6.962;2023-05-03T18:27:33;20.20;46.80
1063;DHT22;520;50.932;6.962;2023-05-03T18:30:07;20.00;46.60
1063;DHT22;520;50.932;6.962;2023-05-03T18:32:39;19.90;47.00
1063;DHT22;520;50.932;6.962;2023-05-03T18:35:06;19.80;47.20
1063;DHT22;520;50.932;6.962;2023-05-03T18:37:41;19.70;47.70
1063;DHT22;520;50.932;6.962;2023-05-03T18:40:18;19.60;47.90
1063;DHT22;520;50.932;6.962;2023-05-03T18:42:51;19.60;47.70
1063;DHT22;520;50.932;6.962;2023-05-03T18:45:18;19.60;47.70
1063;DHT22;520;50.932;6.962;2023-05-03T18:47:48;19.60;48.10
1063;DHT22;520;50.932;6.962;2023-05-03T18:50:17;19.50;48.00
1063;DHT22;520;50.932;6.962;2023-05-03T18:52:45;19.30;48.20
1063;DHT22;520;50.932;6.962;2023-05-03T18:55:12;19.20;48.50
1063;DHT22;520;50.932;6.962;2023-05-03T18:57:39;19.20;48.50
1063;DHT22;520;50.932;6.962;2023-05-03T19:00:07;19.20;49.20